sensor_id;sensor_type;location;lat;lon;timestamp;P1;durP1;ratioP1;P2;durP2;ratioP2
46863;SDS011;32598;50.204;6.408;2024-03-29T00:00:50;7.30;;;1.90;;
46863;SDS011;32598;50.204;6.408;2024-03-29T00:03:15;10.57;;;1.92;;
46863;SDS011;32598;50.204;6.408;2024-03-29T00:05:40;7.63;;;2.13;;
46863;SDS011;32598;50.204;6.408;2024-03-29T00:08:06;6.47;;;2.42;;
46863;SDS011;32598;50.204;6.408;2024-03-29T00:10:31;10.95;;;1.63;;
46863;SDS011;32598;50.204;6.408;2024-03-29T00:12:56;7.53;;;2.03;;
46863;SDS011;32598;50.204;6.408;2024-03-29T00:15:21;9.27;;;1.70;;
46863;SDS011;32598;50.204;6.408;2024-03-29T00:17:47;6.22;;;1.92;;
46863;SDS011;32598;50.204;6.408;2024-03-29T00:20:12;8.52;;;1.92;;
46863;SDS011;32598;50.204;6.408;2024-03-29T00:22:37;7.55;;;1.70;;
46863;SDS011;32598;50.204;6.408;2024-03-29T00:25:03;7.28;;;1.83;;
46863;SDS011;32598;50.204;6.408;2024-03-29T00:27:28;6.97;;;1.65;;
46863;SDS011;32598;50.204;6.408;2024-03-29T00:29:54;8.32;;;2.22;;
46863;SDS011;32598;50.204;6.408;2024-03-29T00:32:20;6.63;;;1.40;;
46863;SDS011;32598;50.204;6.408;2024-03-29T00:34:46;7.15;;;1.70;;
46863;SDS011;32598;50.204;6.408;2024-03-29T00:37:11;4.90;;;1.35;;
46863;SDS011;32598;50.204;6.408;2024-03-29T00:39:37;5.57;;;1.20;;
46863;SDS011;32598;50.204;6.408;2024-03-29T00:42:02;8.30;;;1.53;;
46863;SDS011;32598;50.204;6.408;2024-03-29T00:44:28;8.50;;;1.73;;
46863;SDS011;32598;50.204;6.408;2024-03-29T00:46:53;9.75;;;1.55;;
46863;SDS011;32598;50.204;6.408;2024-03-29T00:49:18;9.15;;;1.45;;
46863;SDS011;32598;50.204;6.408;2024-03-29T00:51:44;5.82;;;1.30;;
46863;SDS011;32598;50.204;6.408;2024-03-29T00:54:09;7.65;;;1.70;;
46863;SDS011;32598;50.204;6.408;2024-03-29T00:56:34;8.63;;;1.63;;
46863;SDS011;32598;50.204;6.408;2024-03-29T00:58:59;5.17;;;1.47;;
46863;SDS011;32598;50.204;6.408;2024-03-29T01:01:24;12.98;;;1.88;;
46863;SDS011;32598;50.204;6.408;2024-03-29T01:03:49;6.00;;;1.30;;
46863;SDS011;32598;50.204;6.408;2024-03-29T01:06:15;8.33;;;1.60;;
46863;SDS011;32598;50.204;6.408;2024-03-29T01:08:40;6.20;;;1.98;;
46863;SDS011;32598;50.204;6.408;2024-03-29T01:11:05;7.28;;;2.10;;
46863;SDS011;32598;50.204;6.408;2024-03-29T01:13:30;8.80;;;1.90;;
46863;SDS011;32598;50.204;6.408;2024-03-29T01:15:55;10.45;;;1.73;;
46863;SDS011;32598;50.204;6.408;2024-03-29T01:18:20;6.97;;;1.50;;
46863;SDS011;32598;50.204;6.408;2024-03-29T01:20:45;9.32;;;1.90;;
46863;SDS011;32598;50.204;6.408;2024-03-29T01:23:11;6.30;;;1.75;;
46863;SDS011;32598;50.204;6.408;2024-03-29T01:25:36;6.85;;;1.77;;
46863;SDS011;32598;50.204;6.408;2024-03-29T01:28:01;7.03;;;1.40;;
46863;SDS011;32598;50.204;6.408;2024-03-29T01:30:26;13.68;;;2.00;;
46863;SDS011;32598;50.204;6.408;2024-03-29T01:32:52;6.07;;;1.42;;
46863;SDS011;32598;50.204;6.408;2024-03-29T01:35:17;6.40;;;1.47;;
46863;SDS011;32598;50.204;6.408;2024-03-29T01:37:42;5.77;;;1.43;;
46863;SDS011;32598;50.204;6.408;2024-03-29T01:40:07;5.75;;;1.40;;
46863;SDS011;32598;50.204;6.408;2024-03-29T01:42:33;5.07;;;1.40;;
46863;SDS011;32598;50.204;6.408;2024-03-29T01:44:58;7.78;;;1.40;;
46863;SDS011;32598;50.204;6.408;2024-03-29T01:47:24;8.43;;;1.63;;
46863;SDS011;32598;50.204;6.408;2024-03-29T01:49:49;6.97;;;1.63;;
46863;SDS011;32598;50.204;6.408;2024-03-29T01:52:14;7.93;;;2.10;;
46863;SDS011;32598;50.204;6.408;2024-03-29T01:54:41;7.93;;;2.30;;
46863;SDS011;32598;50.204;6.408;2024-03-29T01:57:06;5.22;;;1.30;;
46863;SDS011;32598;50.204;6.408;2024-03-29T01:59:32;8.05;;;1.70;;
46863;SDS011;32598;50.204;6.408;2024-03-29T02:01:57;5.65;;;1.38;;
46863;SDS011;32598;50.204;6.408;2024-03-29T02:04:23;5.22;;;1.15;;
46863;SDS011;32598;50.204;6.408;2024-03-29T02:06:48;6.67;;;1.60;;
46863;SDS011;32598;50.204;6.408;2024-03-29T02:09:14;5.43;;;1.48;;
46863;SDS011;32598;50.204;6.408;2024-03-29T02:11:39;5.50;;;1.50;;
46863;SDS011;32598;50.204;6.408;2024-03-29T02:14:04;10.40;;;1.70;;
46863;SDS011;32598;50.204;6.408;2024-03-29T02:16:31;8.18;;;1.70;;
46863;SDS011;32598;50.204;6.408;2024-03-29T02:18:56;9.23;;;1.30;;
46863;SDS011;32598;50.204;6.408;2024-03-29T02:21:21;7.83;;;1.37;;
46863;SDS011;32598;50.204;6.408;2024-03-29T02:23:47;6.53;;;1.75;;
46863;SDS011;32598;50.204;6.408;2024-03-29T02:26:15;6.80;;;1.85;;
46863;SDS011;32598;50.204;6.408;2024-03-29T02:28:41;5.75;;;1.50;;
46863;SDS011;32598;50.204;6.408;2024-03-29T02:31:06;7.38;;;1.40;;
46863;SDS011;32598;50.204;6.408;2024-03-29T02:33:33;7.97;;;1.50;;
46863;SDS011;32598;50.204;6.408;2024-03-29T02:35:58;6.35;;;1.60;;
46863;SDS011;32598;50.204;6.408;2024-03-29T02:38:23;7.55;;;2.20;;
46863;SDS011;32598;50.204;6.408;2024-03-29T02:40:48;5.13;;;1.63;;
46863;SDS011;32598;50.204;6.408;2024-03-29T02:43:14;4.95;;;1.58;;
46863;SDS011;32598;50.204;6.408;2024-03-29T02:45:39;7.50;;;2.05;;
46863;SDS011;32598;50.204;6.408;2024-03-29T02:48:04;7.57;;;2.55;;
46863;SDS011;32598;50.204;6.408;2024-03-29T02:50:30;7.38;;;2.20;;
46863;SDS011;32598;50.204;6.408;2024-03-29T02:52:55;5.85;;;2.47;;
46863;SDS011;32598;50.204;6.408;2024-03-29T02:55:20;10.00;;;2.67;;
46863;SDS011;32598;50.204;6.408;2024-03-29T02:57:45;6.50;;;1.73;;
46863;SDS011;32598;50.204;6.408;2024-03-29T03:00:10;7.23;;;1.80;;
46863;SDS011;32598;50.204;6.408;2024-03-29T03:02:39;7.68;;;1.92;;
46863;SDS011;32598;50.204;6.408;2024-03-29T03:05:05;6.32;;;1.63;;
46863;SDS011;32598;50.204;6.408;2024-03-29T03:07:30;10.35;;;1.90;;
46863;SDS011;32598;50.204;6.408;2024-03-29T03:12:58;8.25;;;1.60;;
46863;SDS011;32598;50.204;6.408;2024-03-29T03:15:23;5.95;;;1.60;;
46863;SDS011;32598;50.204;6.408;2024-03-29T03:17:49;8.30;;;1.87;;
46863;SDS011;32598;50.204;6.408;2024-03-29T03:20:14;7.18;;;1.55;;
46863;SDS011;32598;50.204;6.408;2024-03-29T03:22:41;6.35;;;1.83;;
46863;SDS011;32598;50.204;6.408;2024-03-29T03:25:06;7.03;;;1.77;;
46863;SDS011;32598;50.204;6.408;2024-03-29T03:27:32;6.15;;;1.58;;
46863;SDS011;32598;50.204;6.408;2024-03-29T03:29:57;6.70;;;1.88;;
46863;SDS011;32598;50.204;6.408;2024-03-29T03:32:22;8.27;;;1.67;;
46863;SDS011;32598;50.204;6.408;2024-03-29T03:34:47;8.68;;;1.90;;
46863;SDS011;32598;50.204;6.408;2024-03-29T03:37:12;8.25;;;1.88;;
46863;SDS011;32598;50.204;6.408;2024-03-29T03:39:38;6.97;;;2.03;;
46863;SDS011;32598;50.204;6.408;2024-03-29T03:42:03;7.20;;;2.15;;
46863;SDS011;32598;50.204;6.408;2024-03-29T03:44:28;5.95;;;1.80;;
46863;SDS011;32598;50.204;6.408;2024-03-29T03:46:55;8.53;;;1.50;;
46863;SDS011;32598;50.204;6.408;2024-03-29T03:49:20;11.95;;;2.47;;
46863;SDS011;32598;50.204;6.408;2024-03-29T03:51:45;7.30;;;2.28;;
46863;SDS011;32598;50.204;6.408;2024-03-29T03:54:10;8.65;;;1.88;;
46863;SDS011;32598;50.204;6.408;2024-03-29T03:56:35;6.37;;;2.10;;
46863;SDS011;32598;50.204;6.408;2024-03-29T03:59:01;6.90;;;2.75;;
46863;SDS011;32598;50.204;6.408;2024-03-29T04:01:26;7.55;;;1.75;;
46863;SDS011;32598;50.204;6.408;2024-03-29T04:03:51;8.98;;;2.10;;
46863;SDS011;32598;50.204;6.408;2024-03-29T04:06:16;6.97;;;2.13;;
46863;SDS011;32598;50.204;6.408;2024-03-29T04:08:43;6.15;;;1.88;;
46863;SDS011;32598;50.204;6.408;2024-03-29T04:11:08;8.27;;;1.83;;
46863;SDS011;32598;50.204;6.408;2024-03-29T04:13:34;7.68;;;2.10;;
46863;SDS011;32598;50.204;6.408;2024-03-29T04:16:02;8.23;;;2.37;;
46863;SDS011;32598;50.204;6.408;2024-03-29T04:18:27;6.50;;;2.20;;
46863;SDS011;32598;50.204;6.408;2024-03-29T04:20:57;8.68;;;2.65;;
46863;SDS011;32598;50.204;6.408;2024-03-29T04:23:22;10.40;;;3.17;;
46863;SDS011;32598;50.204;6.408;2024-03-29T04:25:56;8.15;;;2.30;;
46863;SDS011;32598;50.204;6.408;2024-03-29T04:28:22;9.35;;;2.50;;
46863;SDS011;32598;50.204;6.408;2024-03-29T04:30:53;11.85;;;2.67;;
46863;SDS011;32598;50.204;6.408;2024-03-29T04:33:18;9.73;;;2.92;;
46863;SDS011;32598;50.204;6.408;2024-03-29T04:35:53;5.73;;;2.40;;
46863;SDS011;32598;50.204;6.408;2024-03-29T04:38:19;9.15;;;2.97;;
46863;SDS011;32598;50.204;6.408;2024-03-29T04:40:44;8.20;;;2.63;;
46863;SDS011;32598;50.204;6.408;2024-03-29T04:43:09;8.13;;;2.85;;
46863;SDS011;32598;50.204;6.408;2024-03-29T04:45:34;11.15;;;2.58;;
46863;SDS011;32598;50.204;6.408;2024-03-29T04:47:59;9.32;;;2.42;;
46863;SDS011;32598;50.204;6.408;2024-03-29T04:50:24;9.73;;;2.60;;
46863;SDS011;32598;50.204;6.408;2024-03-29T04:52:50;11.05;;;2.85;;
46863;SDS011;32598;50.204;6.408;2024-03-29T04:55:15;10.43;;;2.80;;
46863;SDS011;32598;50.204;6.408;2024-03-29T04:57:40;7.53;;;3.03;;
46863;SDS011;32598;50.204;6.408;2024-03-29T05:00:06;9.38;;;2.95;;
46863;SDS011;32598;50.204;6.408;2024-03-29T05:02:31;13.57;;;3.13;;
46863;SDS011;32598;50.204;6.408;2024-03-29T05:04:56;7.38;;;2.88;;
46863;SDS011;32598;50.204;6.408;2024-03-29T05:07:23;12.50;;;3.22;;
46863;SDS011;32598;50.204;6.408;2024-03-29T05:09:48;8.77;;;3.05;;
46863;SDS011;32598;50.204;6.408;2024-03-29T05:12:13;7.50;;;2.97;;
46863;SDS011;32598;50.204;6.408;2024-03-29T05:14:38;8.57;;;2.42;;
46863;SDS011;32598;50.204;6.408;2024-03-29T05:17:03;7.07;;;2.78;;
46863;SDS011;32598;50.204;6.408;2024-03-29T05:19:28;8.68;;;3.17;;
46863;SDS011;32598;50.204;6.408;2024-03-29T05:21:53;10.65;;;3.10;;
46863;SDS011;32598;50.204;6.408;2024-03-29T05:24:19;12.95;;;3.28;;
46863;SDS011;32598;50.204;6.408;2024-03-29T05:26:44;9.65;;;3.03;;
46863;SDS011;32598;50.204;6.408;2024-03-29T05:29:09;10.93;;;3.10;;
46863;SDS011;32598;50.204;6.408;2024-03-29T05:31:34;8.55;;;3.42;;
46863;SDS011;32598;50.204;6.408;2024-03-29T05:34:00;10.60;;;3.83;;
46863;SDS011;32598;50.204;6.408;2024-03-29T05:36:25;13.07;;;3.45;;
46863;SDS011;32598;50.204;6.408;2024-03-29T05:38:50;8.45;;;3.47;;
46863;SDS011;32598;50.204;6.408;2024-03-29T05:41:15;8.73;;;3.72;;
46863;SDS011;32598;50.204;6.408;2024-03-29T05:43:41;10.20;;;3.47;;
46863;SDS011;32598;50.204;6.408;2024-03-29T05:46:06;10.10;;;3.57;;
46863;SDS011;32598;50.204;6.408;2024-03-29T05:48:31;10.70;;;3.80;;
46863;SDS011;32598;50.204;6.408;2024-03-29T05:50:56;9.32;;;3.88;;
46863;SDS011;32598;50.204;6.408;2024-03-29T05:53:21;9.85;;;4.00;;
46863;SDS011;32598;50.204;6.408;2024-03-29T05:55:46;8.98;;;3.75;;
46863;SDS011;32598;50.204;6.408;2024-03-29T05:58:12;9.38;;;4.10;;
46863;SDS011;32598;50.204;6.408;2024-03-29T06:00:42;8.05;;;3.80;;
46863;SDS011;32598;50.204;6.408;2024-03-29T06:03:07;5.60;;;3.30;;
46863;SDS011;32598;50.204;6.408;2024-03-29T06:05:32;12.30;;;3.95;;
46863;SDS011;32598;50.204;6.408;2024-03-29T06:07:57;9.40;;;3.67;;
46863;SDS011;32598;50.204;6.408;2024-03-29T06:10:22;7.83;;;4.07;;
46863;SDS011;32598;50.204;6.408;2024-03-29T06:12:47;7.83;;;4.30;;
46863;SDS011;32598;50.204;6.408;2024-03-29T06:15:13;8.23;;;3.40;;
46863;SDS011;32598;50.204;6.408;2024-03-29T06:17:56;8.57;;;3.67;;
46863;SDS011;32598;50.204;6.408;2024-03-29T06:20:22;5.53;;;2.95;;
46863;SDS011;32598;50.204;6.408;2024-03-29T06:22:48;5.68;;;3.00;;
46863;SDS011;32598;50.204;6.408;2024-03-29T06:25:13;8.02;;;3.10;;
46863;SDS011;32598;50.204;6.408;2024-03-29T06:27:38;6.32;;;2.88;;
46863;SDS011;32598;50.204;6.408;2024-03-29T06:30:04;7.37;;;3.00;;
46863;SDS011;32598;50.204;6.408;2024-03-29T06:32:30;8.35;;;3.03;;
46863;SDS011;32598;50.204;6.408;2024-03-29T06:34:55;6.13;;;2.80;;
46863;SDS011;32598;50.204;6.408;2024-03-29T06:37:20;7.40;;;2.38;;
46863;SDS011;32598;50.204;6.408;2024-03-29T06:39:50;6.82;;;3.05;;
46863;SDS011;32598;50.204;6.408;2024-03-29T06:42:15;6.22;;;2.78;;
46863;SDS011;32598;50.204;6.408;2024-03-29T06:44:40;6.10;;;2.53;;
46863;SDS011;32598;50.204;6.408;2024-03-29T06:47:06;5.78;;;2.08;;
46863;SDS011;32598;50.204;6.408;2024-03-29T06:49:32;5.22;;;2.30;;
46863;SDS011;32598;50.204;6.408;2024-03-29T06:51:57;5.03;;;2.28;;
46863;SDS011;32598;50.204;6.408;2024-03-29T06:54:25;5.55;;;2.05;;
46863;SDS011;32598;50.204;6.408;2024-03-29T06:56:51;6.82;;;2.00;;
46863;SDS011;32598;50.204;6.408;2024-03-29T06:59:17;5.00;;;1.80;;
46863;SDS011;32598;50.204;6.408;2024-03-29T07:01:42;7.80;;;2.10;;
46863;SDS011;32598;50.204;6.408;2024-03-29T07:04:07;7.93;;;2.70;;
46863;SDS011;32598;50.204;6.408;2024-03-29T07:06:32;7.60;;;2.67;;
46863;SDS011;32598;50.204;6.408;2024-03-29T07:08:57;6.28;;;2.40;;
46863;SDS011;32598;50.204;6.408;2024-03-29T07:11:23;4.80;;;2.10;;
46863;SDS011;32598;50.204;6.408;2024-03-29T07:13:48;6.78;;;2.15;;
46863;SDS011;32598;50.204;6.408;2024-03-29T07:16:13;5.80;;;1.92;;
46863;SDS011;32598;50.204;6.408;2024-03-29T07:18:38;6.28;;;2.08;;
46863;SDS011;32598;50.204;6.408;2024-03-29T07:21:03;9.05;;;2.58;;
46863;SDS011;32598;50.204;6.408;2024-03-29T07:23:29;7.07;;;2.05;;
46863;SDS011;32598;50.204;6.408;2024-03-29T07:26:01;7.13;;;2.45;;
46863;SDS011;32598;50.204;6.408;2024-03-29T07:28:26;6.82;;;1.88;;
46863;SDS011;32598;50.204;6.408;2024-03-29T07:30:52;4.20;;;1.50;;
46863;SDS011;32598;50.204;6.408;2024-03-29T07:33:18;5.57;;;2.03;;
46863;SDS011;32598;50.204;6.408;2024-03-29T07:35:44;5.70;;;2.42;;
46863;SDS011;32598;50.204;6.408;2024-03-29T07:38:10;4.43;;;1.63;;
46863;SDS011;32598;50.204;6.408;2024-03-29T07:40:35;4.68;;;1.75;;
46863;SDS011;32598;50.204;6.408;2024-03-29T07:43:00;5.30;;;1.88;;
46863;SDS011;32598;50.204;6.408;2024-03-29T07:45:26;4.18;;;1.48;;
46863;SDS011;32598;50.204;6.408;2024-03-29T07:47:51;4.68;;;1.70;;
46863;SDS011;32598;50.204;6.408;2024-03-29T07:50:17;4.13;;;1.23;;
46863;SDS011;32598;50.204;6.408;2024-03-29T07:52:44;3.67;;;1.30;;
46863;SDS011;32598;50.204;6.408;2024-03-29T07:55:09;3.55;;;1.20;;
46863;SDS011;32598;50.204;6.408;2024-03-29T07:57:35;4.82;;;1.35;;
46863;SDS011;32598;50.204;6.408;2024-03-29T08:00:00;4.78;;;1.27;;
46863;SDS011;32598;50.204;6.408;2024-03-29T08:02:25;3.10;;;1.20;;
46863;SDS011;32598;50.204;6.408;2024-03-29T08:04:52;3.88;;;1.25;;
46863;SDS011;32598;50.204;6.408;2024-03-29T08:07:17;3.63;;;1.40;;
46863;SDS011;32598;50.204;6.408;2024-03-29T08:09:42;3.90;;;1.30;;
46863;SDS011;32598;50.204;6.408;2024-03-29T08:12:07;5.82;;;1.67;;
46863;SDS011;32598;50.204;6.408;2024-03-29T08:14:32;3.85;;;1.40;;
46863;SDS011;32598;50.204;6.408;2024-03-29T08:16:57;3.40;;;1.20;;
46863;SDS011;32598;50.204;6.408;2024-03-29T08:19:27;3.90;;;1.27;;
46863;SDS011;32598;50.204;6.408;2024-03-29T08:21:52;3.63;;;1.20;;
46863;SDS011;32598;50.204;6.408;2024-03-29T08:24:17;2.63;;;0.97;;
46863;SDS011;32598;50.204;6.408;2024-03-29T08:26:42;3.53;;;1.23;;
46863;SDS011;32598;50.204;6.408;2024-03-29T08:29:07;2.93;;;1.10;;
46863;SDS011;32598;50.204;6.408;2024-03-29T08:31:33;4.55;;;1.10;;
46863;SDS011;32598;50.204;6.408;2024-03-29T08:33:58;3.80;;;1.00;;
46863;SDS011;32598;50.204;6.408;2024-03-29T08:36:23;4.47;;;1.00;;
46863;SDS011;32598;50.204;6.408;2024-03-29T08:38:48;4.13;;;1.13;;
46863;SDS011;32598;50.204;6.408;2024-03-29T08:41:14;4.27;;;1.10;;
46863;SDS011;32598;50.204;6.408;2024-03-29T08:43:39;2.95;;;0.98;;
46863;SDS011;32598;50.204;6.408;2024-03-29T08:46:04;2.22;;;0.85;;
46863;SDS011;32598;50.204;6.408;2024-03-29T08:48:30;2.50;;;1.00;;
46863;SDS011;32598;50.204;6.408;2024-03-29T08:50:55;5.55;;;1.10;;
46863;SDS011;32598;50.204;6.408;2024-03-29T08:53:20;2.97;;;0.85;;
46863;SDS011;32598;50.204;6.408;2024-03-29T08:55:47;3.15;;;0.90;;
46863;SDS011;32598;50.204;6.408;2024-03-29T08:58:13;2.85;;;0.90;;
46863;SDS011;32598;50.204;6.408;2024-03-29T09:00:38;3.88;;;1.10;;
46863;SDS011;32598;50.204;6.408;2024-03-29T09:03:04;3.47;;;1.07;;
46863;SDS011;32598;50.204;6.408;2024-03-29T09:05:29;5.10;;;1.20;;
46863;SDS011;32598;50.204;6.408;2024-03-29T09:07:54;3.67;;;1.20;;
46863;SDS011;32598;50.204;6.408;2024-03-29T09:10:20;3.55;;;0.90;;
46863;SDS011;32598;50.204;6.408;2024-03-29T09:12:45;5.38;;;0.90;;
46863;SDS011;32598;50.204;6.408;2024-03-29T09:15:10;3.83;;;1.10;;
46863;SDS011;32598;50.204;6.408;2024-03-29T09:17:41;4.50;;;0.90;;
46863;SDS011;32598;50.204;6.408;2024-03-29T09:20:07;3.10;;;1.15;;
46863;SDS011;32598;50.204;6.408;2024-03-29T09:22:32;2.03;;;0.70;;
46863;SDS011;32598;50.204;6.408;2024-03-29T09:24:58;4.32;;;0.80;;
46863;SDS011;32598;50.204;6.408;2024-03-29T09:27:23;3.23;;;1.10;;
46863;SDS011;32598;50.204;6.408;2024-03-29T09:29:48;2.37;;;0.70;;
46863;SDS011;32598;50.204;6.408;2024-03-29T09:32:16;2.40;;;0.88;;
46863;SDS011;32598;50.204;6.408;2024-03-29T09:34:46;5.47;;;1.10;;
46863;SDS011;32598;50.204;6.408;2024-03-29T09:37:11;2.43;;;0.90;;
46863;SDS011;32598;50.204;6.408;2024-03-29T09:39:36;2.60;;;0.95;;
46863;SDS011;32598;50.204;6.408;2024-03-29T09:42:04;3.33;;;0.90;;
46863;SDS011;32598;50.204;6.408;2024-03-29T09:44:31;5.40;;;1.30;;
46863;SDS011;32598;50.204;6.408;2024-03-29T09:46:58;2.78;;;1.02;;
46863;SDS011;32598;50.204;6.408;2024-03-29T09:49:24;3.67;;;0.98;;
46863;SDS011;32598;50.204;6.408;2024-03-29T09:51:50;2.53;;;1.00;;
46863;SDS011;32598;50.204;6.408;2024-03-29T09:54:15;2.78;;;0.90;;
46863;SDS011;32598;50.204;6.408;2024-03-29T09:56:41;1.83;;;0.75;;
46863;SDS011;32598;50.204;6.408;2024-03-29T09:59:07;2.75;;;0.82;;
46863;SDS011;32598;50.204;6.408;2024-03-29T10:01:32;3.40;;;0.97;;
46863;SDS011;32598;50.204;6.408;2024-03-29T10:03:57;2.30;;;1.00;;
46863;SDS011;32598;50.204;6.408;2024-03-29T10:06:24;2.15;;;0.85;;
46863;SDS011;32598;50.204;6.408;2024-03-29T10:08:49;2.10;;;0.90;;
46863;SDS011;32598;50.204;6.408;2024-03-29T10:11:15;2.03;;;0.90;;
46863;SDS011;32598;50.204;6.408;2024-03-29T10:13:42;3.15;;;0.95;;
46863;SDS011;32598;50.204;6.408;2024-03-29T10:16:07;5.10;;;1.40;;
46863;SDS011;32598;50.204;6.408;2024-03-29T10:18:33;2.55;;;1.02;;
46863;SDS011;32598;50.204;6.408;2024-03-29T10:21:05;3.03;;;1.33;;
46863;SDS011;32598;50.204;6.408;2024-03-29T10:23:31;4.25;;;1.48;;
46863;SDS011;32598;50.204;6.408;2024-03-29T10:25:57;4.45;;;1.52;;
46863;SDS011;32598;50.204;6.408;2024-03-29T10:28:23;3.63;;;1.50;;
46863;SDS011;32598;50.204;6.408;2024-03-29T10:30:48;4.85;;;1.60;;
46863;SDS011;32598;50.204;6.408;2024-03-29T10:33:13;3.67;;;1.60;;
46863;SDS011;32598;50.204;6.408;2024-03-29T10:35:45;3.72;;;1.52;;
46863;SDS011;32598;50.204;6.408;2024-03-29T10:38:11;5.70;;;2.40;;
46863;SDS011;32598;50.204;6.408;2024-03-29T10:40:39;4.47;;;1.58;;
46863;SDS011;32598;50.204;6.408;2024-03-29T10:43:08;5.13;;;1.90;;
46863;SDS011;32598;50.204;6.408;2024-03-29T10:45:37;5.00;;;1.88;;
46863;SDS011;32598;50.204;6.408;2024-03-29T10:48:03;4.00;;;1.80;;
46863;SDS011;32598;50.204;6.408;2024-03-29T10:50:32;4.85;;;1.70;;
46863;SDS011;32598;50.204;6.408;2024-03-29T10:52:58;4.00;;;1.80;;
46863;SDS011;32598;50.204;6.408;2024-03-29T10:55:25;5.45;;;2.05;;
46863;SDS011;32598;50.204;6.408;2024-03-29T10:57:51;5.38;;;1.60;;
46863;SDS011;32598;50.204;6.408;2024-03-29T11:00:18;4.43;;;1.67;;
46863;SDS011;32598;50.204;6.408;2024-03-29T11:05:28;3.67;;;1.75;;
46863;SDS011;32598;50.204;6.408;2024-03-29T11:07:54;3.70;;;1.60;;
46863;SDS011;32598;50.204;6.408;2024-03-29T11:10:20;4.25;;;1.65;;
46863;SDS011;32598;50.204;6.408;2024-03-29T11:12:57;3.30;;;1.40;;
46863;SDS011;32598;50.204;6.408;2024-03-29T11:15:27;3.08;;;1.30;;
46863;SDS011;32598;50.204;6.408;2024-03-29T11:17:54;4.03;;;1.60;;
46863;SDS011;32598;50.204;6.408;2024-03-29T11:20:20;3.28;;;1.00;;
46863;SDS011;32598;50.204;6.408;2024-03-29T11:22:49;2.38;;;0.93;;
46863;SDS011;32598;50.204;6.408;2024-03-29T11:25:14;3.40;;;1.10;;
46863;SDS011;32598;50.204;6.408;2024-03-29T11:27:39;4.20;;;1.10;;
46863;SDS011;32598;50.204;6.408;2024-03-29T11:30:05;3.50;;;1.20;;
46863;SDS011;32598;50.204;6.408;2024-03-29T11:32:34;4.70;;;1.80;;
46863;SDS011;32598;50.204;6.408;2024-03-29T11:35:00;3.63;;;1.08;;
46863;SDS011;32598;50.204;6.408;2024-03-29T11:37:29;3.08;;;1.02;;
46863;SDS011;32598;50.204;6.408;2024-03-29T11:39:54;3.10;;;1.10;;
46863;SDS011;32598;50.204;6.408;2024-03-29T11:42:34;2.72;;;1.10;;
46863;SDS011;32598;50.204;6.408;2024-03-29T11:44:59;3.72;;;1.50;;
46863;SDS011;32598;50.204;6.408;2024-03-29T11:47:25;3.43;;;1.13;;
46863;SDS011;32598;50.204;6.408;2024-03-29T11:49:56;2.28;;;0.88;;
46863;SDS011;32598;50.204;6.408;2024-03-29T11:52:21;2.88;;;1.00;;
46863;SDS011;32598;50.204;6.408;2024-03-29T11:54:46;3.40;;;1.25;;
46863;SDS011;32598;50.204;6.408;2024-03-29T11:57:11;3.00;;;1.10;;
46863;SDS011;32598;50.204;6.408;2024-03-29T11:59:36;4.53;;;1.38;;
46863;SDS011;32598;50.204;6.408;2024-03-29T12:02:01;1.98;;;0.75;;
46863;SDS011;32598;50.204;6.408;2024-03-29T12:04:28;2.85;;;1.10;;
46863;SDS011;32598;50.204;6.408;2024-03-29T12:06:53;3.15;;;1.00;;
46863;SDS011;32598;50.204;6.408;2024-03-29T12:09:18;3.93;;;1.43;;
46863;SDS011;32598;50.204;6.408;2024-03-29T12:11:43;3.45;;;1.23;;
46863;SDS011;32598;50.204;6.408;2024-03-29T12:14:13;3.35;;;1.08;;
46863;SDS011;32598;50.204;6.408;2024-03-29T12:16:42;3.50;;;1.05;;
46863;SDS011;32598;50.204;6.408;2024-03-29T12:19:07;3.53;;;1.38;;
46863;SDS011;32598;50.204;6.408;2024-03-29T12:21:32;3.05;;;1.30;;
46863;SDS011;32598;50.204;6.408;2024-03-29T12:23:57;4.43;;;1.93;;
46863;SDS011;32598;50.204;6.408;2024-03-29T12:26:23;3.90;;;1.20;;
46863;SDS011;32598;50.204;6.408;2024-03-29T12:28:48;6.03;;;1.45;;
46863;SDS011;32598;50.204;6.408;2024-03-29T12:31:13;3.78;;;1.30;;
46863;SDS011;32598;50.204;6.408;2024-03-29T12:33:39;4.95;;;1.60;;
46863;SDS011;32598;50.204;6.408;2024-03-29T12:36:04;5.78;;;1.33;;
46863;SDS011;32598;50.204;6.408;2024-03-29T12:38:30;4.28;;;1.30;;
46863;SDS011;32598;50.204;6.408;2024-03-29T12:40:57;3.33;;;1.30;;
46863;SDS011;32598;50.204;6.408;2024-03-29T12:43:23;4.93;;;1.23;;
46863;SDS011;32598;50.204;6.408;2024-03-29T12:45:49;3.67;;;1.10;;
46863;SDS011;32598;50.204;6.408;2024-03-29T12:48:15;4.10;;;1.48;;
46863;SDS011;32598;50.204;6.408;2024-03-29T12:50:41;3.60;;;1.40;;
46863;SDS011;32598;50.204;6.408;2024-03-29T12:53:07;5.63;;;1.65;;
46863;SDS011;32598;50.204;6.408;2024-03-29T12:55:32;3.08;;;1.23;;
46863;SDS011;32598;50.204;6.408;2024-03-29T12:58:01;3.42;;;1.10;;
46863;SDS011;32598;50.204;6.408;2024-03-29T13:00:29;7.53;;;1.35;;
46863;SDS011;32598;50.204;6.408;2024-03-29T13:02:54;6.00;;;1.90;;
46863;SDS011;32598;50.204;6.408;2024-03-29T13:05:19;8.18;;;2.00;;
46863;SDS011;32598;50.204;6.408;2024-03-29T13:07:44;4.50;;;1.42;;
46863;SDS011;32598;50.204;6.408;2024-03-29T13:10:10;4.18;;;1.38;;
46863;SDS011;32598;50.204;6.408;2024-03-29T13:12:40;3.05;;;0.90;;
46863;SDS011;32598;50.204;6.408;2024-03-29T13:15:14;3.47;;;0.98;;
46863;SDS011;32598;50.204;6.408;2024-03-29T13:17:39;6.03;;;1.38;;
46863;SDS011;32598;50.204;6.408;2024-03-29T13:20:05;4.07;;;1.00;;
46863;SDS011;32598;50.204;6.408;2024-03-29T13:22:30;5.18;;;1.30;;
46863;SDS011;32598;50.204;6.408;2024-03-29T13:24:55;3.47;;;1.10;;
46863;SDS011;32598;50.204;6.408;2024-03-29T13:27:20;3.67;;;1.10;;
46863;SDS011;32598;50.204;6.408;2024-03-29T13:29:45;5.13;;;1.30;;
46863;SDS011;32598;50.204;6.408;2024-03-29T13:32:10;6.05;;;1.55;;
46863;SDS011;32598;50.204;6.408;2024-03-29T13:34:36;5.10;;;1.42;;
46863;SDS011;32598;50.204;6.408;2024-03-29T13:37:01;5.95;;;1.33;;
46863;SDS011;32598;50.204;6.408;2024-03-29T13:39:27;3.88;;;1.10;;
46863;SDS011;32598;50.204;6.408;2024-03-29T13:41:52;4.22;;;1.20;;
46863;SDS011;32598;50.204;6.408;2024-03-29T13:44:18;4.95;;;1.10;;
46863;SDS011;32598;50.204;6.408;2024-03-29T13:46:43;7.20;;;1.48;;
46863;SDS011;32598;50.204;6.408;2024-03-29T13:49:08;5.53;;;1.33;;
46863;SDS011;32598;50.204;6.408;2024-03-29T13:51:33;3.20;;;0.90;;
46863;SDS011;32598;50.204;6.408;2024-03-29T13:53:58;5.03;;;1.13;;
46863;SDS011;32598;50.204;6.408;2024-03-29T13:56:24;5.87;;;1.07;;
46863;SDS011;32598;50.204;6.408;2024-03-29T13:58:49;4.20;;;1.20;;
46863;SDS011;32598;50.204;6.408;2024-03-29T14:01:14;6.43;;;0.90;;
46863;SDS011;32598;50.204;6.408;2024-03-29T14:03:39;4.28;;;0.90;;
46863;SDS011;32598;50.204;6.408;2024-03-29T14:06:04;3.25;;;0.90;;
46863;SDS011;32598;50.204;6.408;2024-03-29T14:08:30;2.88;;;0.88;;
46863;SDS011;32598;50.204;6.408;2024-03-29T14:10:56;1.25;;;0.50;;
46863;SDS011;32598;50.204;6.408;2024-03-29T14:13:21;3.50;;;1.55;;
46863;SDS011;32598;50.204;6.408;2024-03-29T14:15:46;4.00;;;1.10;;
46863;SDS011;32598;50.204;6.408;2024-03-29T14:18:11;2.27;;;0.70;;
46863;SDS011;32598;50.204;6.408;2024-03-29T14:20:37;3.38;;;0.95;;
46863;SDS011;32598;50.204;6.408;2024-03-29T14:23:03;2.38;;;0.70;;
46863;SDS011;32598;50.204;6.408;2024-03-29T14:25:31;2.63;;;0.75;;
46863;SDS011;32598;50.204;6.408;2024-03-29T14:27:56;2.35;;;0.55;;
46863;SDS011;32598;50.204;6.408;2024-03-29T14:30:24;4.13;;;0.75;;
46863;SDS011;32598;50.204;6.408;2024-03-29T14:32:52;3.00;;;0.90;;
46863;SDS011;32598;50.204;6.408;2024-03-29T14:35:17;2.20;;;0.70;;
46863;SDS011;32598;50.204;6.408;2024-03-29T14:37:43;3.45;;;0.70;;
46863;SDS011;32598;50.204;6.408;2024-03-29T14:40:08;2.03;;;0.77;;
46863;SDS011;32598;50.204;6.408;2024-03-29T14:42:34;2.75;;;0.68;;
46863;SDS011;32598;50.204;6.408;2024-03-29T14:45:01;2.38;;;0.73;;